Decoded Metar for RJCC (SAPPORO in JAPAN) (IATA:CTS) | Meteo·Mobile Aviation Weather
aviador You're here:

RJCC Decoded Metar

SAPPORO in JAPAN
Report Time2018-08-19 13:30:00
UTC Time2018-08-19 14:06:27
Flight Rules vfr VFR
Wind150° at 10 kt
W.Decomp.*RWY 19: 8.6 kt HW 5.2 kt LCW
W.Rank150° ranks 5
Current wind is above 150° avg. (8.8)
Visibility9999 m
Phenomena:N/A
Clouds:Few 010 Hf
CeilingNone
Temp17°C (ISA +2)
Dew Point17°C (100% RH)
AAT15.8°C
QNH1012 hPa
Density Alt646 ft
Elevation98 ft
Report Wrong Elevation
Raw Report
RJCC 191330Z 15010KT 9999 FEW010 17/17 Q1012 RMK 1ST010 A2991=

Extra information for RJCC:More info

Metar Taf Metar & Taf Last 4 Metars F.Rules Stats Wind Profile Meteogram Temp Stats Airport Information Weather charts Add Link Nearby VenuesMetar ALERT Operation Metar Decoded Social comments